createdAt,value
2022-12-03T00:00:19.429Z,58.68
2022-12-03T00:03:42.158Z,55.03
2022-12-03T00:06:44.459Z,56.14
2022-12-03T00:09:47.646Z,54.60
2022-12-03T00:12:50.277Z,58.58
2022-12-03T00:15:52.769Z,60.00
2022-12-03T00:18:55.093Z,58.11
2022-12-03T00:21:58.125Z,57.32
2022-12-03T00:25:00.863Z,57.14
2022-12-03T00:28:03.801Z,56.65
2022-12-03T00:31:06.961Z,59.48
2022-12-03T00:34:09.722Z,58.79
2022-12-03T00:37:11.766Z,58.06
2022-12-03T00:40:14.649Z,57.81
2022-12-03T00:43:16.778Z,58.32
2022-12-03T00:46:21.596Z,59.53
2022-12-03T00:49:23.991Z,59.17
2022-12-03T00:52:26.519Z,57.45
2022-12-03T00:55:28.535Z,59.29
2022-12-03T00:58:30.837Z,57.77
2022-12-03T01:01:32.828Z,57.82
2022-12-03T01:04:35.486Z,58.32
2022-12-03T01:07:37.903Z,58.79
2022-12-03T01:10:40.748Z,57.54
2022-12-03T01:13:42.760Z,57.45
2022-12-03T01:16:46.963Z,57.94
2022-12-03T01:19:48.904Z,56.85
2022-12-03T01:22:51.198Z,58.22
2022-12-03T01:25:53.479Z,57.69
2022-12-03T01:28:55.807Z,58.72
2022-12-03T01:32:16.456Z,56.56
2022-12-03T01:35:19.349Z,58.81
2022-12-03T01:38:21.394Z,56.61
2022-12-03T01:41:25.193Z,57.31
2022-12-03T01:44:31.129Z,57.18
2022-12-03T01:47:36.260Z,57.84
2022-12-03T01:50:38.978Z,58.88
2022-12-03T01:53:42.121Z,57.16
2022-12-03T01:56:45.340Z,60.72
2022-12-03T01:59:48.800Z,57.89
2022-12-03T02:02:55.704Z,58.91
2022-12-03T02:05:58.650Z,59.66
2022-12-03T02:09:00.951Z,58.79
2022-12-03T02:12:03.769Z,60.32
2022-12-03T02:15:08.050Z,59.32
2022-12-03T02:18:10.892Z,59.26
2022-12-03T02:21:15.967Z,58.79
2022-12-03T02:24:42.485Z,58.78
2022-12-03T02:27:44.881Z,59.39
2022-12-03T02:30:47.255Z,60.70
2022-12-03T02:33:50.102Z,60.62
2022-12-03T02:36:52.997Z,60.05
2022-12-03T02:39:58.123Z,59.35
2022-12-03T02:43:02.761Z,57.25
2022-12-03T02:46:08.049Z,58.06
2022-12-03T02:49:11.007Z,58.92
2022-12-03T02:52:13.198Z,58.33
2022-12-03T02:55:18.076Z,59.86
2022-12-03T02:58:23.017Z,60.63
2022-12-03T03:01:25.797Z,58.82
2022-12-03T03:04:29.082Z,58.02
2022-12-03T03:07:31.823Z,60.41
2022-12-03T03:10:35.877Z,61.11
2022-12-03T03:13:38.744Z,58.72
2022-12-03T03:16:40.793Z,61.61
2022-12-03T03:19:43.977Z,60.80
2022-12-03T03:22:46.562Z,60.62
2022-12-03T03:25:57.111Z,60.21
2022-12-03T03:29:00.407Z,61.10
2022-12-03T03:32:04.432Z,59.47
2022-12-03T03:35:08.450Z,58.27
2022-12-03T03:38:10.938Z,57.94
2022-12-03T03:41:14.599Z,59.09
2022-12-03T03:44:16.838Z,57.27
2022-12-03T03:47:20.243Z,55.87
2022-12-03T03:50:23.599Z,53.27
2022-12-03T03:53:25.663Z,55.76
2022-12-03T03:56:28.206Z,56.23
2022-12-03T03:59:30.716Z,53.19
2022-12-03T04:02:33.425Z,54.48
2022-12-03T04:05:35.556Z,56.94
2022-12-03T04:08:38.090Z,57.29
2022-12-03T04:11:58.576Z,58.90
2022-12-03T04:15:01.261Z,57.85
2022-12-03T04:18:21.922Z,54.93
2022-12-03T04:21:42.912Z,56.85
2022-12-03T04:24:46.045Z,56.83
2022-12-03T04:28:07.564Z,57.09
2022-12-03T04:31:28.495Z,58.09
2022-12-03T04:34:50.579Z,59.75
2022-12-03T04:37:52.906Z,58.92
2022-12-03T04:41:01.414Z,58.77
2022-12-03T04:44:22.143Z,56.25
2022-12-03T04:47:24.523Z,56.19
2022-12-03T04:50:26.464Z,56.94
2022-12-03T04:53:28.744Z,57.76
2022-12-03T04:56:30.767Z,58.53
2022-12-03T04:59:33.572Z,57.25
2022-12-03T05:02:35.667Z,57.53
2022-12-03T05:05:38.724Z,58.60
2022-12-03T05:08:40.649Z,60.11
2022-12-03T05:11:44.086Z,59.12
2022-12-03T05:14:47.695Z,59.19
2022-12-03T05:17:50.593Z,60.42
2022-12-03T05:20:53.663Z,57.56
2022-12-03T05:23:56.426Z,54.65
2022-12-03T05:26:58.836Z,54.23
2022-12-03T05:30:01.873Z,53.57
2022-12-03T05:33:04.377Z,52.88
2022-12-03T05:36:07.088Z,53.92
2022-12-03T05:39:09.172Z,52.42
2022-12-03T05:42:30.393Z,53.95
2022-12-03T05:45:37.232Z,54.56
2022-12-03T05:48:39.556Z,54.81
2022-12-03T05:51:43.219Z,55.94
2022-12-03T05:54:45.507Z,54.05
2022-12-03T05:57:48.427Z,55.09
2022-12-03T06:00:50.929Z,54.35
2022-12-03T06:03:53.163Z,51.43
2022-12-03T06:06:55.635Z,53.10
2022-12-03T06:09:57.819Z,53.65
2022-12-03T06:13:01.101Z,54.93
2022-12-03T06:16:03.216Z,53.77
2022-12-03T06:19:05.438Z,53.87
2022-12-03T06:22:07.411Z,52.81
2022-12-03T06:25:10.809Z,52.81
2022-12-03T06:28:12.898Z,52.05
2022-12-03T06:31:15.364Z,51.83
2022-12-03T06:34:17.623Z,51.56
2022-12-03T06:37:20.444Z,50.93
2022-12-03T06:40:24.801Z,50.95
2022-12-03T06:43:27.284Z,50.56
2022-12-03T06:46:29.453Z,49.98
2022-12-03T06:49:31.989Z,51.09
2022-12-03T06:52:34.027Z,50.32
2022-12-03T06:55:36.706Z,52.91
2022-12-03T06:58:38.959Z,52.70
2022-12-03T07:01:41.369Z,53.04
2022-12-03T07:04:46.470Z,54.08
2022-12-03T07:07:52.383Z,51.74
2022-12-03T07:10:55.548Z,52.13
2022-12-03T07:14:05.411Z,57.91
2022-12-03T07:17:08.117Z,55.62
2022-12-03T07:20:11.008Z,58.22
2022-12-03T07:23:13.025Z,59.91
2022-12-03T07:26:15.433Z,57.19
2022-12-03T07:29:18.050Z,57.43
2022-12-03T07:32:20.438Z,59.38
2022-12-03T07:35:22.748Z,60.91
2022-12-03T07:38:25.502Z,58.78
2022-12-03T07:41:29.681Z,57.62
2022-12-03T07:44:32.162Z,57.24
2022-12-03T07:47:36.369Z,54.76
2022-12-03T07:50:39.007Z,55.98
2022-12-03T07:53:40.910Z,54.31
2022-12-03T07:56:43.610Z,54.03
2022-12-03T07:59:45.948Z,54.14
2022-12-03T08:02:48.679Z,53.02
2022-12-03T08:05:50.906Z,53.99
2022-12-03T08:08:53.918Z,54.79
2022-12-03T08:11:56.043Z,53.16
2022-12-03T08:14:58.320Z,52.79
2022-12-03T08:18:18.262Z,52.04
2022-12-03T08:21:21.890Z,54.81
2022-12-03T08:24:23.875Z,54.03
2022-12-03T08:27:26.726Z,53.15
2022-12-03T08:30:29.153Z,52.38
2022-12-03T08:33:39.732Z,51.98
2022-12-03T08:36:44.732Z,51.63
2022-12-03T08:39:55.043Z,51.58
2022-12-03T08:42:57.324Z,51.48
2022-12-03T08:45:59.615Z,51.21
2022-12-03T08:49:01.587Z,51.27
2022-12-03T08:52:14.446Z,51.42
2022-12-03T08:55:35.841Z,51.55
2022-12-03T08:58:44.624Z,51.55
2022-12-03T09:01:49.404Z,51.36
2022-12-03T09:04:53.281Z,51.31
2022-12-03T09:07:55.779Z,51.42
2022-12-03T09:10:58.318Z,51.45
2022-12-03T09:14:00.605Z,51.44
2022-12-03T09:17:03.366Z,51.59
2022-12-03T09:20:07.188Z,51.33
2022-12-03T09:23:09.854Z,51.09
2022-12-03T09:26:12.038Z,50.46
2022-12-03T09:29:14.758Z,51.06
2022-12-03T09:32:18.719Z,50.81
2022-12-03T09:35:21.999Z,49.90
2022-12-03T09:38:24.253Z,50.15
2022-12-03T09:41:29.605Z,50.01
2022-12-03T09:44:36.663Z,49.85
2022-12-03T09:47:44.216Z,49.43
2022-12-03T09:50:46.876Z,48.89
2022-12-03T09:53:49.361Z,48.59
2022-12-03T09:56:52.891Z,48.56
2022-12-03T09:59:56.011Z,48.20
2022-12-03T10:03:04.118Z,47.95
2022-12-03T10:06:07.280Z,48.08
2022-12-03T10:09:12.063Z,48.26
2022-12-03T10:12:20.555Z,48.06
2022-12-03T10:15:24.836Z,48.31
2022-12-03T10:18:32.780Z,48.17
2022-12-03T10:21:39.692Z,47.75
2022-12-03T10:24:42.688Z,47.60
2022-12-03T10:27:56.797Z,48.21
2022-12-03T10:31:00.873Z,47.91
2022-12-03T10:34:03.021Z,47.94
2022-12-03T10:37:11.415Z,47.12
2022-12-03T10:40:13.648Z,48.88
2022-12-03T10:43:20.717Z,47.76
2022-12-03T10:46:27.134Z,46.97
2022-12-03T10:49:29.610Z,46.40
2022-12-03T10:52:32.414Z,49.32
2022-12-03T10:55:39.644Z,48.44
2022-12-03T10:58:42.405Z,48.12
2022-12-03T11:01:45.332Z,47.60
2022-12-03T11:04:48.865Z,47.64
2022-12-03T11:07:51.265Z,48.37
2022-12-03T11:11:27.819Z,47.76
2022-12-03T11:14:50.727Z,47.49
2022-12-03T11:17:53.631Z,45.21
2022-12-03T11:21:14.995Z,46.78
2022-12-03T11:24:20.699Z,48.58
2022-12-03T11:27:23.192Z,48.49
2022-12-03T11:30:51.425Z,47.27
2022-12-03T11:34:20.634Z,49.94
2022-12-03T11:37:25.283Z,50.13
2022-12-03T11:40:36.140Z,48.75
2022-12-03T11:43:53.163Z,48.09
2022-12-03T11:46:59.740Z,49.05
2022-12-03T11:50:03.341Z,50.09
2022-12-03T11:53:08.029Z,49.51
2022-12-03T11:56:19.002Z,48.99
2022-12-03T11:59:23.263Z,47.37
2022-12-03T12:02:26.308Z,49.45
2022-12-03T12:05:35.665Z,49.83
2022-12-03T12:08:42.195Z,49.54
2022-12-03T12:11:45.100Z,49.48
2022-12-03T12:14:48.068Z,48.25
2022-12-03T12:17:51.389Z,49.32
2022-12-03T12:20:53.541Z,50.01
2022-12-03T12:23:56.287Z,49.72
2022-12-03T12:27:01.293Z,50.50
2022-12-03T12:30:08.077Z,49.96
2022-12-03T12:33:27.118Z,46.54
2022-12-03T12:36:30.110Z,50.12
2022-12-03T12:39:32.724Z,50.78
2022-12-03T12:42:37.481Z,50.50
2022-12-03T12:45:42.062Z,50.76
2022-12-03T12:49:11.715Z,50.21
2022-12-03T12:52:17.172Z,50.10
2022-12-03T12:55:21.282Z,50.07
2022-12-03T12:58:24.486Z,54.83
2022-12-03T13:05:16.225Z,50.84
2022-12-03T13:08:38.187Z,49.80
2022-12-03T13:11:46.246Z,49.07
2022-12-03T13:14:51.460Z,52.36
2022-12-03T13:17:54.426Z,52.06
2022-12-03T13:20:57.409Z,51.44
2022-12-03T13:24:01.091Z,49.87
2022-12-03T13:27:18.655Z,53.04
2022-12-03T13:30:23.459Z,53.72
2022-12-03T13:33:29.034Z,51.88
2022-12-03T13:36:43.079Z,52.95
2022-12-03T13:39:48.799Z,49.33
2022-12-03T13:42:54.713Z,50.92
2022-12-03T13:46:00.004Z,53.77
2022-12-03T13:49:12.266Z,50.50
2022-12-03T13:52:19.456Z,53.70
2022-12-03T13:55:29.014Z,54.08
2022-12-03T13:58:32.083Z,52.75
2022-12-03T14:01:35.389Z,52.66
2022-12-03T14:04:38.857Z,52.12
2022-12-03T14:07:41.737Z,51.43
2022-12-03T14:10:45.223Z,50.92
2022-12-03T14:13:47.523Z,48.18
2022-12-03T14:16:55.359Z,50.86
2022-12-03T14:20:01.653Z,50.91
2022-12-03T14:23:04.647Z,50.24
2022-12-03T14:26:07.446Z,49.52
2022-12-03T14:29:10.614Z,48.92
2022-12-03T14:32:13.175Z,49.30
2022-12-03T14:35:16.144Z,48.91
2022-12-03T14:38:21.348Z,48.50
2022-12-03T14:41:51.748Z,48.15
2022-12-03T14:44:54.399Z,47.92
2022-12-03T14:47:57.221Z,48.17
2022-12-03T14:51:02.893Z,48.05
2022-12-03T14:54:06.004Z,47.76
2022-12-03T14:57:11.479Z,47.64
2022-12-03T15:00:15.344Z,47.87
2022-12-03T15:03:18.320Z,47.62
2022-12-03T15:06:22.776Z,47.91
2022-12-03T15:09:26.673Z,45.61
2022-12-03T15:12:33.772Z,48.63
2022-12-03T15:15:40.935Z,49.02
2022-12-03T15:18:47.122Z,47.99
2022-12-03T15:21:56.789Z,47.77
2022-12-03T15:25:04.433Z,47.63
2022-12-03T15:28:08.623Z,47.45
2022-12-03T15:31:14.010Z,47.58
2022-12-03T15:34:22.617Z,47.54
2022-12-03T15:37:30.587Z,47.26
2022-12-03T15:40:35.733Z,47.06
2022-12-03T15:43:41.070Z,44.67
2022-12-03T15:46:45.932Z,47.71
2022-12-03T15:49:50.031Z,47.25
2022-12-03T15:52:52.546Z,45.03
2022-12-03T15:55:55.881Z,46.30
2022-12-03T15:58:59.199Z,46.30
2022-12-03T16:02:02.671Z,49.38
2022-12-03T16:05:11.180Z,47.98
2022-12-03T16:08:15.175Z,47.51
2022-12-03T16:11:18.429Z,46.73
2022-12-03T16:14:23.756Z,47.86
2022-12-03T16:17:27.121Z,47.81
2022-12-03T16:20:32.435Z,47.83
2022-12-03T16:23:36.354Z,48.03
2022-12-03T16:26:42.523Z,48.24
2022-12-03T16:29:48.099Z,46.15
2022-12-03T16:32:53.867Z,48.44
2022-12-03T16:35:57.750Z,48.69
2022-12-03T16:39:02.572Z,48.29
2022-12-03T16:42:10.200Z,48.41
2022-12-03T16:45:29.423Z,48.00
2022-12-03T16:48:33.007Z,47.85
2022-12-03T16:51:40.489Z,48.01
2022-12-03T16:54:43.454Z,47.50
2022-12-03T16:57:47.682Z,47.19
2022-12-03T17:00:52.444Z,44.97
2022-12-03T17:03:55.846Z,46.92
2022-12-03T17:07:00.424Z,46.69
2022-12-03T17:10:04.886Z,46.81
2022-12-03T17:13:10.496Z,46.53
2022-12-03T17:16:13.996Z,46.22
2022-12-03T17:19:17.877Z,46.03
2022-12-03T17:22:21.642Z,46.11
2022-12-03T17:25:24.424Z,45.72
2022-12-03T17:28:27.387Z,45.30
2022-12-03T17:31:30.910Z,46.20
2022-12-03T17:34:33.669Z,46.85
2022-12-03T17:37:36.690Z,46.02
2022-12-03T17:40:39.657Z,46.80
2022-12-03T17:43:41.891Z,46.86
2022-12-03T17:46:45.473Z,46.80
2022-12-03T17:49:47.725Z,47.00
2022-12-03T17:52:51.172Z,47.09
2022-12-03T17:55:53.580Z,47.07
2022-12-03T17:58:57.988Z,47.14
2022-12-03T18:02:00.700Z,47.36
2022-12-03T18:05:03.956Z,47.40
2022-12-03T18:08:06.947Z,47.51
2022-12-03T18:11:09.737Z,47.65
2022-12-03T18:14:13.530Z,47.79
2022-12-03T18:17:16.226Z,47.82
2022-12-03T18:20:18.213Z,48.25
2022-12-03T18:23:20.831Z,48.29
2022-12-03T18:26:23.117Z,48.41
2022-12-03T18:29:26.197Z,48.74
2022-12-03T18:32:29.859Z,48.84
2022-12-03T18:35:32.721Z,48.99
2022-12-03T18:38:35.982Z,49.11
2022-12-03T18:41:39.074Z,49.40
2022-12-03T18:44:47.875Z,46.60
2022-12-03T18:47:52.656Z,49.73
2022-12-03T18:50:56.927Z,50.41
2022-12-03T18:54:00.355Z,50.45
2022-12-03T18:57:02.426Z,49.94
2022-12-03T19:00:13.195Z,49.42
2022-12-03T19:03:15.853Z,50.24
2022-12-03T19:06:22.393Z,50.14
2022-12-03T19:09:24.593Z,50.15
2022-12-03T19:12:27.068Z,50.21
2022-12-03T19:15:30.756Z,50.15
2022-12-03T19:18:34.027Z,50.18
2022-12-03T19:21:36.336Z,50.07
2022-12-03T19:24:41.136Z,50.40
2022-12-03T19:27:45.459Z,50.20
2022-12-03T19:31:03.001Z,47.85
2022-12-03T19:34:05.576Z,51.24
2022-12-03T19:37:10.934Z,50.68
2022-12-03T19:40:14.246Z,50.40
2022-12-03T19:43:17.382Z,50.30
2022-12-03T19:46:24.232Z,50.22
2022-12-03T19:49:31.323Z,50.28
2022-12-03T19:52:37.163Z,50.84
2022-12-03T19:55:42.425Z,50.98
2022-12-03T19:58:46.637Z,49.81
2022-12-03T20:01:50.766Z,51.05
2022-12-03T20:04:53.219Z,51.47
2022-12-03T20:07:55.849Z,51.05
2022-12-03T20:11:11.028Z,50.31
2022-12-03T20:14:16.198Z,51.33
2022-12-03T20:17:20.030Z,51.13
2022-12-03T20:20:22.729Z,50.82
2022-12-03T20:23:25.213Z,50.28
2022-12-03T20:26:28.546Z,50.66
2022-12-03T20:29:31.068Z,50.70
2022-12-03T20:32:38.236Z,50.79
2022-12-03T20:35:43.080Z,50.61
2022-12-03T20:38:45.780Z,51.01
2022-12-03T20:41:47.987Z,50.97
2022-12-03T20:44:53.857Z,50.58
2022-12-03T20:47:56.233Z,51.15
2022-12-03T20:50:59.461Z,48.03
2022-12-03T20:54:02.085Z,50.81
2022-12-03T20:57:05.092Z,50.57
2022-12-03T21:00:08.199Z,50.45
2022-12-03T21:03:11.092Z,51.46
2022-12-03T21:06:15.032Z,50.82
2022-12-03T21:09:17.858Z,50.68
2022-12-03T21:12:19.943Z,50.56
2022-12-03T21:15:22.825Z,50.70
2022-12-03T21:18:25.148Z,50.59
2022-12-03T21:21:28.192Z,50.69
2022-12-03T21:24:30.432Z,50.84
2022-12-03T21:27:33.602Z,50.56
2022-12-03T21:30:40.344Z,49.89
2022-12-03T21:33:44.254Z,50.80
2022-12-03T21:36:46.465Z,50.55
2022-12-03T21:39:49.022Z,51.10
2022-12-03T21:42:51.272Z,50.66
2022-12-03T21:45:54.850Z,50.24
2022-12-03T21:48:57.344Z,49.92
2022-12-03T21:51:59.923Z,49.87
2022-12-03T21:55:02.283Z,49.89
2022-12-03T21:58:05.804Z,49.59
2022-12-03T22:01:24.474Z,49.24
2022-12-03T22:04:27.581Z,49.41
2022-12-03T22:07:33.486Z,49.50
2022-12-03T22:10:38.228Z,49.05
2022-12-03T22:13:41.526Z,49.10
2022-12-03T22:16:44.216Z,49.00
2022-12-03T22:19:47.006Z,46.18
2022-12-03T22:22:51.005Z,49.03
2022-12-03T22:26:05.608Z,48.89
2022-12-03T22:29:08.092Z,47.61
2022-12-03T22:32:12.017Z,48.89
2022-12-03T22:35:14.779Z,48.46
2022-12-03T22:38:16.936Z,48.15
2022-12-03T22:41:19.820Z,48.05
2022-12-03T22:44:21.951Z,47.65
2022-12-03T22:47:24.322Z,47.53
2022-12-03T22:50:26.258Z,47.50
2022-12-03T22:53:28.557Z,47.39
2022-12-03T22:56:31.522Z,47.19
2022-12-03T22:59:34.058Z,47.33
2022-12-03T23:02:36.270Z,47.21
2022-12-03T23:05:39.771Z,46.05
2022-12-03T23:08:43.049Z,47.01
2022-12-03T23:11:46.184Z,46.97
2022-12-03T23:14:48.105Z,46.73
2022-12-03T23:17:50.491Z,46.91
2022-12-03T23:20:54.792Z,47.01
2022-12-03T23:24:02.245Z,46.92
2022-12-03T23:27:04.330Z,46.94
2022-12-03T23:30:08.123Z,47.40
2022-12-03T23:33:10.031Z,47.43
2022-12-03T23:36:13.419Z,47.54
2022-12-03T23:39:15.382Z,47.67
2022-12-03T23:42:18.339Z,47.95
2022-12-03T23:45:20.451Z,48.19
2022-12-03T23:48:23.026Z,47.95
2022-12-03T23:51:26.265Z,47.78
2022-12-03T23:54:28.507Z,47.69
2022-12-03T23:57:30.777Z,47.52
